sensor_id;sensor_type;location;lat;lon;timestamp;pressure;altitude;pressure_sealevel;temperature;humidity
69214;BME280;56325;47.030;18.518;2023-02-01T00:02:24;100643.16;;;4.19;71.51
69214;BME280;56325;47.030;18.518;2023-02-01T00:05:00;100635.88;;;4.09;70.86
69214;BME280;56325;47.030;18.518;2023-02-01T00:07:35;100633.16;;;4.09;70.76
69214;BME280;56325;47.030;18.518;2023-02-01T00:10:10;100640.97;;;4.07;70.43
69214;BME280;56325;47.030;18.518;2023-02-01T00:12:44;100640.97;;;4.07;70.34
69214;BME280;56325;47.030;18.518;2023-02-01T00:15:19;100641.00;;;4.03;70.65
69214;BME280;56325;47.030;18.518;2023-02-01T00:17:54;100631.28;;;4.02;71.26
69214;BME280;56325;47.030;18.518;2023-02-01T00:20:30;100624.63;;;4.07;71.28
69214;BME280;56325;47.030;18.518;2023-02-01T00:23:04;100631.72;;;3.97;71.60
69214;BME280;56325;47.030;18.518;2023-02-01T00:25:40;100634.78;;;4.03;71.58
69214;BME280;56325;47.030;18.518;2023-02-01T00:28:15;100646.09;;;3.98;71.91
69214;BME280;56325;47.030;18.518;2023-02-01T00:30:56;100632.88;;;4.00;71.74
69214;BME280;56325;47.030;18.518;2023-02-01T00:33:30;100626.28;;;3.97;71.72
69214;BME280;56325;47.030;18.518;2023-02-01T00:36:08;100626.66;;;3.99;71.50
69214;BME280;56325;47.030;18.518;2023-02-01T00:38:44;100624.22;;;4.08;71.12
69214;BME280;56325;47.030;18.518;2023-02-01T00:41:19;100632.44;;;4.05;70.98
69214;BME280;56325;47.030;18.518;2023-02-01T00:43:54;100622.97;;;4.16;71.14
69214;BME280;56325;47.030;18.518;2023-02-01T00:46:29;100617.69;;;4.02;71.78
69214;BME280;56325;47.030;18.518;2023-02-01T00:49:04;100616.66;;;3.89;72.56
69214;BME280;56325;47.030;18.518;2023-02-01T00:51:41;100619.19;;;4.07;71.91
69214;BME280;56325;47.030;18.518;2023-02-01T00:54:15;100610.63;;;4.08;71.15
69214;BME280;56325;47.030;18.518;2023-02-01T00:56:50;100613.37;;;4.05;71.23
69214;BME280;56325;47.030;18.518;2023-02-01T00:59:25;100609.87;;;4.04;71.57
69214;BME280;56325;47.030;18.518;2023-02-01T01:02:00;100611.47;;;4.02;71.67
69214;BME280;56325;47.030;18.518;2023-02-01T01:04:34;100601.31;;;4.06;71.62
69214;BME280;56325;47.030;18.518;2023-02-01T01:07:10;100598.66;;;3.99;71.77
69214;BME280;56325;47.030;18.518;2023-02-01T01:09:45;100604.62;;;3.86;72.46
69214;BME280;56325;47.030;18.518;2023-02-01T01:12:19;100597.63;;;3.85;72.41
69214;BME280;56325;47.030;18.518;2023-02-01T01:14:53;100592.69;;;3.73;72.57
69214;BME280;56325;47.030;18.518;2023-02-01T01:17:30;100593.44;;;3.77;72.05
69214;BME280;56325;47.030;18.518;2023-02-01T01:20:05;100587.69;;;3.68;72.11
69214;BME280;56325;47.030;18.518;2023-02-01T01:22:46;100580.38;;;3.61;71.59
69214;BME280;56325;47.030;18.518;2023-02-01T01:25:20;100576.91;;;3.57;72.13
69214;BME280;56325;47.030;18.518;2023-02-01T01:27:55;100589.03;;;3.49;72.19
69214;BME280;56325;47.030;18.518;2023-02-01T01:30:29;100582.38;;;3.54;72.05
69214;BME280;56325;47.030;18.518;2023-02-01T01:33:04;100573.97;;;3.41;72.38
69214;BME280;56325;47.030;18.518;2023-02-01T01:35:39;100575.56;;;3.39;72.20
69214;BME280;56325;47.030;18.518;2023-02-01T01:38:15;100571.75;;;3.29;72.63
69214;BME280;56325;47.030;18.518;2023-02-01T01:40:52;100567.09;;;3.29;72.58
69214;BME280;56325;47.030;18.518;2023-02-01T01:43:49;100562.47;;;3.23;72.70
69214;BME280;56325;47.030;18.518;2023-02-01T01:46:25;100549.34;;;3.14;72.92
69214;BME280;56325;47.030;18.518;2023-02-01T01:49:05;100545.87;;;3.10;73.00
69214;BME280;56325;47.030;18.518;2023-02-01T01:51:43;100541.25;;;3.07;73.06
69214;BME280;56325;47.030;18.518;2023-02-01T01:54:22;100542.47;;;2.99;73.18
69214;BME280;56325;47.030;18.518;2023-02-01T01:57:01;100534.00;;;2.90;73.82
69214;BME280;56325;47.030;18.518;2023-02-01T01:59:39;100536.66;;;2.97;73.51
69214;BME280;56325;47.030;18.518;2023-02-01T02:02:16;100538.16;;;3.05;73.03
69214;BME280;56325;47.030;18.518;2023-02-01T02:04:51;100543.38;;;2.82;73.52
69214;BME280;56325;47.030;18.518;2023-02-01T02:07:28;100553.34;;;2.95;72.99
69214;BME280;56325;47.030;18.518;2023-02-01T02:10:08;100559.66;;;2.82;73.03
69214;BME280;56325;47.030;18.518;2023-02-01T02:12:46;100548.41;;;2.80;73.48
69214;BME280;56325;47.030;18.518;2023-02-01T02:15:22;100549.53;;;2.86;72.81
69214;BME280;56325;47.030;18.518;2023-02-01T02:18:01;100548.91;;;2.60;73.87
69214;BME280;56325;47.030;18.518;2023-02-01T02:24:01;100541.09;;;2.70;73.33
69214;BME280;56325;47.030;18.518;2023-02-01T02:26:52;100555.06;;;2.72;72.69
69214;BME280;56325;47.030;18.518;2023-02-01T02:36:24;100535.41;;;2.53;73.40
69214;BME280;56325;47.030;18.518;2023-02-01T02:39:10;100531.25;;;2.31;74.51
69214;BME280;56325;47.030;18.518;2023-02-01T02:41:50;100534.69;;;2.46;73.89
69214;BME280;56325;47.030;18.518;2023-02-01T02:44:49;100542.81;;;2.46;74.28
69214;BME280;56325;47.030;18.518;2023-02-01T02:47:57;100560.69;;;2.36;74.78
69214;BME280;56325;47.030;18.518;2023-02-01T02:50:38;100558.38;;;2.38;75.18
69214;BME280;56325;47.030;18.518;2023-02-01T02:53:35;100553.75;;;2.32;75.45
69214;BME280;56325;47.030;18.518;2023-02-01T02:56:31;100556.44;;;2.35;75.81
69214;BME280;56325;47.030;18.518;2023-02-01T02:59:25;100555.22;;;2.47;75.78
69214;BME280;56325;47.030;18.518;2023-02-01T03:02:18;100558.34;;;2.45;74.94
69214;BME280;56325;47.030;18.518;2023-02-01T03:05:10;100555.22;;;2.50;74.99
69214;BME280;56325;47.030;18.518;2023-02-01T03:07:57;100552.06;;;2.55;75.06
69214;BME280;56325;47.030;18.518;2023-02-01T03:10:46;100540.84;;;2.53;74.87
69214;BME280;56325;47.030;18.518;2023-02-01T03:13:32;100540.88;;;2.46;75.36
69214;BME280;56325;47.030;18.518;2023-02-01T03:16:13;100544.00;;;2.45;75.29
69214;BME280;56325;47.030;18.518;2023-02-01T03:18:52;100549.78;;;2.47;75.04
69214;BME280;56325;47.030;18.518;2023-02-01T03:21:31;100554.50;;;2.36;76.01
69214;BME280;56325;47.030;18.518;2023-02-01T03:24:09;100559.75;;;2.64;74.81
69214;BME280;56325;47.030;18.518;2023-02-01T03:26:53;100564.12;;;2.47;75.08
69214;BME280;56325;47.030;18.518;2023-02-01T03:29:36;100568.00;;;2.50;75.14
69214;BME280;56325;47.030;18.518;2023-02-01T03:32:12;100575.84;;;2.30;76.05
69214;BME280;56325;47.030;18.518;2023-02-01T03:34:47;100581.22;;;2.44;76.02
69214;BME280;56325;47.030;18.518;2023-02-01T03:37:25;100580.81;;;2.49;74.93
69214;BME280;56325;47.030;18.518;2023-02-01T03:40:03;100582.34;;;2.54;74.76
69214;BME280;56325;47.030;18.518;2023-02-01T03:42:47;100592.00;;;2.58;74.82
69214;BME280;56325;47.030;18.518;2023-02-01T03:45:27;100582.41;;;2.36;75.82
69214;BME280;56325;47.030;18.518;2023-02-01T03:48:03;100580.03;;;2.49;75.23
69214;BME280;56325;47.030;18.518;2023-02-01T03:50:43;100576.97;;;2.43;75.29
69214;BME280;56325;47.030;18.518;2023-02-01T03:53:20;100581.88;;;2.62;74.65
69214;BME280;56325;47.030;18.518;2023-02-01T03:55:58;100580.81;;;2.49;75.07
69214;BME280;56325;47.030;18.518;2023-02-01T03:58:35;100579.22;;;2.55;75.07
69214;BME280;56325;47.030;18.518;2023-02-01T04:01:09;100580.09;;;2.31;76.01
69214;BME280;56325;47.030;18.518;2023-02-01T04:03:45;100573.13;;;2.34;75.73
69214;BME280;56325;47.030;18.518;2023-02-01T04:06:20;100570.75;;;2.43;75.71
69214;BME280;56325;47.030;18.518;2023-02-01T04:08:55;100561.47;;;2.40;75.93
69214;BME280;56325;47.030;18.518;2023-02-01T04:11:29;100558.78;;;2.33;75.90
69214;BME280;56325;47.030;18.518;2023-02-01T04:14:05;100568.81;;;2.43;75.29
69214;BME280;56325;47.030;18.518;2023-02-01T04:16:39;100566.59;;;2.20;76.37
69214;BME280;56325;47.030;18.518;2023-02-01T04:19:14;100565.69;;;2.48;75.80
69214;BME280;56325;47.030;18.518;2023-02-01T04:21:48;100569.22;;;2.42;75.69
69214;BME280;56325;47.030;18.518;2023-02-01T04:24:23;100574.19;;;2.54;75.32
69214;BME280;56325;47.030;18.518;2023-02-01T04:26:57;100576.97;;;2.40;75.59
69214;BME280;56325;47.030;18.518;2023-02-01T04:29:33;100578.88;;;2.50;75.27
69214;BME280;56325;47.030;18.518;2023-02-01T04:32:07;100571.00;;;2.66;74.74
69214;BME280;56325;47.030;18.518;2023-02-01T04:34:42;100573.06;;;2.48;75.53
69214;BME280;56325;47.030;18.518;2023-02-01T04:37:16;100571.50;;;2.47;75.97
69214;BME280;56325;47.030;18.518;2023-02-01T04:39:51;100572.31;;;2.40;76.21
69214;BME280;56325;47.030;18.518;2023-02-01T04:42:25;100583.13;;;3.58;92.55
69214;BME280;56325;47.030;18.518;2023-02-01T04:45:01;100570.22;;;4.37;83.31
69214;BME280;56325;47.030;18.518;2023-02-01T04:47:36;100578.25;;;3.42;74.52
69214;BME280;56325;47.030;18.518;2023-02-01T04:50:11;100586.72;;;3.00;74.82
69214;BME280;56325;47.030;18.518;2023-02-01T04:52:45;100586.81;;;2.82;74.86
69214;BME280;56325;47.030;18.518;2023-02-01T04:55:19;100581.84;;;2.70;75.10
69214;BME280;56325;47.030;18.518;2023-02-01T04:57:54;100585.34;;;2.67;75.08
69214;BME280;56325;47.030;18.518;2023-02-01T05:00:31;100595.50;;;2.55;75.33
69214;BME280;56325;47.030;18.518;2023-02-01T05:03:05;100597.09;;;2.49;75.82
69214;BME280;56325;47.030;18.518;2023-02-01T05:05:39;100612.66;;;2.38;76.33
69214;BME280;56325;47.030;18.518;2023-02-01T05:08:14;100606.47;;;2.27;76.79
69214;BME280;56325;47.030;18.518;2023-02-01T05:10:48;100612.69;;;2.27;76.97
69214;BME280;56325;47.030;18.518;2023-02-01T05:13:23;100617.34;;;2.27;77.16
69214;BME280;56325;47.030;18.518;2023-02-01T05:16:16;100620.47;;;2.18;77.87
69214;BME280;56325;47.030;18.518;2023-02-01T05:18:50;100618.91;;;2.14;78.06
69214;BME280;56325;47.030;18.518;2023-02-01T05:21:26;100618.91;;;2.21;78.11
69214;BME280;56325;47.030;18.518;2023-02-01T05:24:00;100620.06;;;2.20;78.42
69214;BME280;56325;47.030;18.518;2023-02-01T05:26:46;100618.91;;;2.21;78.66
69214;BME280;56325;47.030;18.518;2023-02-01T05:29:20;100616.56;;;2.23;78.42
69214;BME280;56325;47.030;18.518;2023-02-01T05:31:56;100625.88;;;2.22;78.53
69214;BME280;56325;47.030;18.518;2023-02-01T05:34:43;100614.22;;;3.57;95.68
69214;BME280;56325;47.030;18.518;2023-02-01T05:37:18;100609.03;;;3.25;78.16
69214;BME280;56325;47.030;18.518;2023-02-01T05:39:52;100607.59;;;3.10;85.75
69214;BME280;56325;47.030;18.518;2023-02-01T05:42:27;100602.53;;;4.66;86.02
69214;BME280;56325;47.030;18.518;2023-02-01T05:45:01;100606.44;;;3.55;76.08
69214;BME280;56325;47.030;18.518;2023-02-01T05:47:39;100603.72;;;3.11;76.07
69214;BME280;56325;47.030;18.518;2023-02-01T05:50:14;100601.09;;;2.93;76.50
69214;BME280;56325;47.030;18.518;2023-02-01T05:52:49;100593.03;;;2.82;76.85
69214;BME280;56325;47.030;18.518;2023-02-01T05:55:23;100587.69;;;2.64;77.41
69214;BME280;56325;47.030;18.518;2023-02-01T05:57:58;100596.22;;;2.67;77.31
69214;BME280;56325;47.030;18.518;2023-02-01T06:00:32;100585.72;;;2.72;77.50
69214;BME280;56325;47.030;18.518;2023-02-01T06:03:08;100588.91;;;2.56;78.00
69214;BME280;56325;47.030;18.518;2023-02-01T06:05:44;100596.94;;;2.78;77.14
69214;BME280;56325;47.030;18.518;2023-02-01T06:08:18;100584.47;;;2.84;77.13
69214;BME280;56325;47.030;18.518;2023-02-01T06:10:58;100576.78;;;2.72;77.02
69214;BME280;56325;47.030;18.518;2023-02-01T06:13:33;100591.56;;;2.63;77.55
69214;BME280;56325;47.030;18.518;2023-02-01T06:16:07;100594.25;;;2.67;77.63
69214;BME280;56325;47.030;18.518;2023-02-01T06:18:44;100611.75;;;2.62;77.78
69214;BME280;56325;47.030;18.518;2023-02-01T06:21:19;100609.78;;;2.67;78.16
69214;BME280;56325;47.030;18.518;2023-02-01T06:23:57;100622.94;;;2.72;78.20
69214;BME280;56325;47.030;18.518;2023-02-01T06:26:32;100622.16;;;2.75;77.98
69214;BME280;56325;47.030;18.518;2023-02-01T06:29:07;100624.47;;;2.76;77.98
69214;BME280;56325;47.030;18.518;2023-02-01T06:31:41;100619.06;;;2.69;78.24
69214;BME280;56325;47.030;18.518;2023-02-01T06:34:18;100626.06;;;2.70;78.29
69214;BME280;56325;47.030;18.518;2023-02-01T06:36:53;100631.88;;;2.72;78.30
69214;BME280;56325;47.030;18.518;2023-02-01T06:39:28;100622.03;;;3.00;77.44
69214;BME280;56325;47.030;18.518;2023-02-01T06:42:03;100623.22;;;2.95;77.71
69214;BME280;56325;47.030;18.518;2023-02-01T06:44:37;100622.09;;;2.89;77.96
69214;BME280;56325;47.030;18.518;2023-02-01T06:47:12;100628.66;;;2.95;77.81
69214;BME280;56325;47.030;18.518;2023-02-01T06:49:48;100629.41;;;2.99;77.85
69214;BME280;56325;47.030;18.518;2023-02-01T06:52:22;100629.34;;;3.10;77.42
69214;BME280;56325;47.030;18.518;2023-02-01T06:54:56;100629.78;;;3.01;77.77
69214;BME280;56325;47.030;18.518;2023-02-01T06:57:30;100641.41;;;3.05;77.78
69214;BME280;56325;47.030;18.518;2023-02-01T07:02:55;100637.03;;;3.67;76.49
69214;BME280;56325;47.030;18.518;2023-02-01T07:05:32;100637.03;;;3.67;76.49
69214;BME280;56325;47.030;18.518;2023-02-01T07:08:06;100638.22;;;3.17;77.60
69214;BME280;56325;47.030;18.518;2023-02-01T07:10:41;100634.69;;;3.24;77.52
69214;BME280;56325;47.030;18.518;2023-02-01T07:13:15;100658.34;;;3.27;77.60
69214;BME280;56325;47.030;18.518;2023-02-01T07:15:50;100646.31;;;3.28;77.84
69214;BME280;56325;47.030;18.518;2023-02-01T07:18:26;100649.75;;;3.36;77.91
69214;BME280;56325;47.030;18.518;2023-02-01T07:21:01;100651.66;;;3.39;78.03
69214;BME280;56325;47.030;18.518;2023-02-01T07:23:35;100656.72;;;3.37;78.16
69214;BME280;56325;47.030;18.518;2023-02-01T07:26:11;100659.31;;;3.51;78.17
69214;BME280;56325;47.030;18.518;2023-02-01T07:28:45;100656.81;;;3.74;78.02
69214;BME280;56325;47.030;18.518;2023-02-01T07:31:20;100646.91;;;3.94;77.46
69214;BME280;56325;47.030;18.518;2023-02-01T07:33:56;100648.69;;;4.12;76.63
69214;BME280;56325;47.030;18.518;2023-02-01T07:36:31;100656.38;;;4.20;76.31
69214;BME280;56325;47.030;18.518;2023-02-01T07:39:07;100650.41;;;4.33;75.93
69214;BME280;56325;47.030;18.518;2023-02-01T07:41:41;100659.28;;;4.37;75.39
69214;BME280;56325;47.030;18.518;2023-02-01T07:44:18;100658.06;;;4.41;74.89
69214;BME280;56325;47.030;18.518;2023-02-01T07:46:55;100654.16;;;4.42;74.81
69214;BME280;56325;47.030;18.518;2023-02-01T07:49:31;100665.78;;;4.46;75.12
69214;BME280;56325;47.030;18.518;2023-02-01T07:52:05;100662.66;;;4.48;74.86
69214;BME280;56325;47.030;18.518;2023-02-01T07:54:40;100660.63;;;4.55;74.87
69214;BME280;56325;47.030;18.518;2023-02-01T07:57:15;100664.56;;;4.51;75.25
69214;BME280;56325;47.030;18.518;2023-02-01T07:59:49;100663.34;;;4.55;75.08
69214;BME280;56325;47.030;18.518;2023-02-01T08:02:44;100673.81;;;4.60;74.89
69214;BME280;56325;47.030;18.518;2023-02-01T08:05:20;100692.81;;;4.64;74.91
69214;BME280;56325;47.030;18.518;2023-02-01T08:07:54;100686.94;;;4.69;74.76
69214;BME280;56325;47.030;18.518;2023-02-01T08:10:29;100686.72;;;4.87;73.44
69214;BME280;56325;47.030;18.518;2023-02-01T08:13:03;100686.31;;;4.88;72.94
69214;BME280;56325;47.030;18.518;2023-02-01T08:15:38;100695.03;;;5.07;72.36
69214;BME280;56325;47.030;18.518;2023-02-01T08:18:12;100693.91;;;5.04;72.36
69214;BME280;56325;47.030;18.518;2023-02-01T08:20:50;100694.22;;;5.10;72.38
69214;BME280;56325;47.030;18.518;2023-02-01T08:23:25;100690.34;;;5.07;72.85
69214;BME280;56325;47.030;18.518;2023-02-01T08:26:07;100695.31;;;5.16;72.48
69214;BME280;56325;47.030;18.518;2023-02-01T08:28:43;100697.25;;;5.15;72.84
69214;BME280;56325;47.030;18.518;2023-02-01T08:31:19;100703.44;;;5.19;73.19
69214;BME280;56325;47.030;18.518;2023-02-01T08:33:56;100699.41;;;5.27;73.31
69214;BME280;56325;47.030;18.518;2023-02-01T08:36:33;100700.56;;;5.26;73.55
69214;BME280;56325;47.030;18.518;2023-02-01T08:39:08;100706.03;;;5.26;73.93
69214;BME280;56325;47.030;18.518;2023-02-01T08:41:43;100698.78;;;5.43;73.45
69214;BME280;56325;47.030;18.518;2023-02-01T08:44:39;100697.19;;;5.46;73.40
69214;BME280;56325;47.030;18.518;2023-02-01T08:47:13;100702.13;;;5.54;73.29
69214;BME280;56325;47.030;18.518;2023-02-01T08:49:48;100679.50;;;7.55;96.13
69214;BME280;56325;47.030;18.518;2023-02-01T08:52:24;100660.28;;;9.16;91.05
69214;BME280;56325;47.030;18.518;2023-02-01T08:54:58;100655.16;;;8.51;73.12
69214;BME280;56325;47.030;18.518;2023-02-01T08:57:33;100660.22;;;7.92;68.75
69214;BME280;56325;47.030;18.518;2023-02-01T09:00:11;100663.84;;;7.40;68.03
69214;BME280;56325;47.030;18.518;2023-02-01T09:02:46;100664.91;;;7.10;69.02
69214;BME280;56325;47.030;18.518;2023-02-01T09:05:20;100673.94;;;6.90;69.98
69214;BME280;56325;47.030;18.518;2023-02-01T09:08:08;100665.62;;;6.78;70.18
69214;BME280;56325;47.030;18.518;2023-02-01T09:10:43;100659.31;;;6.61;71.35
69214;BME280;56325;47.030;18.518;2023-02-01T09:13:17;100668.56;;;6.67;71.98
69214;BME280;56325;47.030;18.518;2023-02-01T09:15:52;100663.94;;;6.44;72.00
69214;BME280;56325;47.030;18.518;2023-02-01T09:18:27;100670.78;;;6.33;72.23
69214;BME280;56325;47.030;18.518;2023-02-01T09:21:04;100671.66;;;6.49;71.00
69214;BME280;56325;47.030;18.518;2023-02-01T09:23:40;100664.72;;;6.45;71.21
69214;BME280;56325;47.030;18.518;2023-02-01T09:26:14;100668.34;;;6.58;71.30
69214;BME280;56325;47.030;18.518;2023-02-01T09:28:54;100666.81;;;6.57;69.94
69214;BME280;56325;47.030;18.518;2023-02-01T09:31:30;100663.03;;;6.51;70.36
69214;BME280;56325;47.030;18.518;2023-02-01T09:34:05;100664.22;;;6.70;70.23
69214;BME280;56325;47.030;18.518;2023-02-01T09:36:40;100656.22;;;6.79;70.32
69214;BME280;56325;47.030;18.518;2023-02-01T09:39:16;100644.22;;;8.77;88.51
69214;BME280;56325;47.030;18.518;2023-02-01T09:41:59;100650.63;;;9.12;74.72
69214;BME280;56325;47.030;18.518;2023-02-01T09:44:49;100646.59;;;8.49;67.02
69214;BME280;56325;47.030;18.518;2023-02-01T09:47:27;100629.53;;;8.13;66.54
69214;BME280;56325;47.030;18.518;2023-02-01T09:50:04;100627.41;;;7.75;67.35
69214;BME280;56325;47.030;18.518;2023-02-01T09:52:44;100618.28;;;7.66;66.58
69214;BME280;56325;47.030;18.518;2023-02-01T09:55:27;100623.16;;;7.58;66.56
69214;BME280;56325;47.030;18.518;2023-02-01T09:58:07;100608.28;;;7.43;66.19
69214;BME280;56325;47.030;18.518;2023-02-01T10:00:50;100619.91;;;7.31;66.45
69214;BME280;56325;47.030;18.518;2023-02-01T10:03:29;100617.22;;;7.11;67.42
69214;BME280;56325;47.030;18.518;2023-02-01T10:06:30;100610.28;;;7.06;68.91
69214;BME280;56325;47.030;18.518;2023-02-01T10:09:35;100606.97;;;7.15;69.35
69214;BME280;56325;47.030;18.518;2023-02-01T10:15:35;100593.19;;;7.02;69.22
69214;BME280;56325;47.030;18.518;2023-02-01T10:18:40;100584.91;;;7.06;68.95
69214;BME280;56325;47.030;18.518;2023-02-01T10:21:25;100575.94;;;7.05;68.58
69214;BME280;56325;47.030;18.518;2023-02-01T10:24:22;100579.19;;;7.00;68.80
69214;BME280;56325;47.030;18.518;2023-02-01T10:27:02;100567.22;;;7.10;70.19
69214;BME280;56325;47.030;18.518;2023-02-01T10:29:45;100561.25;;;6.99;71.24
69214;BME280;56325;47.030;18.518;2023-02-01T10:32:23;100558.34;;;6.90;70.48
69214;BME280;56325;47.030;18.518;2023-02-01T10:35:00;100563.63;;;6.81;70.33
69214;BME280;56325;47.030;18.518;2023-02-01T10:37:35;100552.81;;;6.57;70.82
69214;BME280;56325;47.030;18.518;2023-02-01T10:40:16;100555.03;;;6.46;72.45
69214;BME280;56325;47.030;18.518;2023-02-01T10:42:54;100558.81;;;6.33;72.18
69214;BME280;56325;47.030;18.518;2023-02-01T10:45:33;100551.03;;;6.11;71.64
69214;BME280;56325;47.030;18.518;2023-02-01T10:48:08;100557.59;;;5.98;72.95
69214;BME280;56325;47.030;18.518;2023-02-01T10:50:48;100557.97;;;6.16;72.83
69214;BME280;56325;47.030;18.518;2023-02-01T10:53:29;100553.25;;;6.00;72.37
69214;BME280;56325;47.030;18.518;2023-02-01T10:56:07;100537.97;;;6.03;73.03
69214;BME280;56325;47.030;18.518;2023-02-01T10:58:46;100548.09;;;5.82;73.18
69214;BME280;56325;47.030;18.518;2023-02-01T11:01:27;100540.09;;;5.95;73.17
69214;BME280;56325;47.030;18.518;2023-02-01T11:04:04;100536.75;;;5.84;71.94
69214;BME280;56325;47.030;18.518;2023-02-01T11:06:40;100517.53;;;5.91;70.23
69214;BME280;56325;47.030;18.518;2023-02-01T11:09:19;100527.16;;;5.76;70.55
69214;BME280;56325;47.030;18.518;2023-02-01T11:11:58;100527.34;;;5.65;70.93
69214;BME280;56325;47.030;18.518;2023-02-01T11:14:37;100519.25;;;5.81;70.53
69214;BME280;56325;47.030;18.518;2023-02-01T11:17:25;100504.87;;;5.57;71.94
69214;BME280;56325;47.030;18.518;2023-02-01T11:20:03;100520.91;;;5.55;71.63
69214;BME280;56325;47.030;18.518;2023-02-01T11:22:45;100527.59;;;5.51;71.79
69214;BME280;56325;47.030;18.518;2023-02-01T11:25:21;100515.47;;;5.32;72.37
69214;BME280;56325;47.030;18.518;2023-02-01T11:27:57;100521.81;;;5.49;71.74
69214;BME280;56325;47.030;18.518;2023-02-01T11:30:33;100517.06;;;5.30;74.21
69214;BME280;56325;47.030;18.518;2023-02-01T11:33:13;100513.03;;;5.38;74.67
69214;BME280;56325;47.030;18.518;2023-02-01T11:35:49;100518.84;;;5.40;73.17
69214;BME280;56325;47.030;18.518;2023-02-01T11:38:27;100498.53;;;5.64;70.94
69214;BME280;56325;47.030;18.518;2023-02-01T11:41:12;100484.03;;;5.47;71.86
69214;BME280;56325;47.030;18.518;2023-02-01T11:43:52;100480.13;;;5.68;71.73
69214;BME280;56325;47.030;18.518;2023-02-01T11:46:29;100470.03;;;8.85;100.00
69214;BME280;56325;47.030;18.518;2023-02-01T11:49:20;100481.81;;;9.20;95.32
69214;BME280;56325;47.030;18.518;2023-02-01T11:52:07;100490.22;;;7.86;70.14
69214;BME280;56325;47.030;18.518;2023-02-01T11:55:00;100494.16;;;7.11;71.50
69214;BME280;56325;47.030;18.518;2023-02-01T11:57:48;100497.09;;;6.71;71.34
69214;BME280;56325;47.030;18.518;2023-02-01T12:00:36;100489.34;;;5.98;72.59
69214;BME280;56325;47.030;18.518;2023-02-01T12:03:46;100497.91;;;5.76;74.16
69214;BME280;56325;47.030;18.518;2023-02-01T12:06:31;100513.75;;;5.42;74.91
69214;BME280;56325;47.030;18.518;2023-02-01T12:09:38;100492.44;;;5.13;75.64
69214;BME280;56325;47.030;18.518;2023-02-01T12:12:19;100465.38;;;5.03;74.97
69214;BME280;56325;47.030;18.518;2023-02-01T12:15:23;100498.50;;;5.21;74.08
69214;BME280;56325;47.030;18.518;2023-02-01T12:18:25;100469.12;;;5.32;78.62
69214;BME280;56325;47.030;18.518;2023-02-01T12:21:09;100466.41;;;6.96;80.94
69214;BME280;56325;47.030;18.518;2023-02-01T12:24:00;100475.62;;;6.01;73.84
69214;BME280;56325;47.030;18.518;2023-02-01T12:26:56;100490.81;;;5.39;73.92
69214;BME280;56325;47.030;18.518;2023-02-01T12:29:48;100494.19;;;5.23;74.23
69214;BME280;56325;47.030;18.518;2023-02-01T12:32:46;100489.72;;;5.13;74.25
69214;BME280;56325;47.030;18.518;2023-02-01T12:38:41;100500.53;;;4.93;73.44
69214;BME280;56325;47.030;18.518;2023-02-01T12:41:45;100517.56;;;5.01;73.36
69214;BME280;56325;47.030;18.518;2023-02-01T12:44:37;100509.03;;;4.99;73.67
69214;BME280;56325;47.030;18.518;2023-02-01T12:47:14;100520.81;;;7.23;96.85
69214;BME280;56325;47.030;18.518;2023-02-01T12:49:55;100524.50;;;5.72;72.68
69214;BME280;56325;47.030;18.518;2023-02-01T12:52:36;100519.31;;;5.35;71.76
69214;BME280;56325;47.030;18.518;2023-02-01T12:55:19;100530.34;;;5.27;72.47
69214;BME280;56325;47.030;18.518;2023-02-01T12:58:03;100529.06;;;5.12;73.17
69214;BME280;56325;47.030;18.518;2023-02-01T13:00:44;100531.72;;;5.16;73.34
69214;BME280;56325;47.030;18.518;2023-02-01T13:03:29;100533.50;;;5.03;74.92
69214;BME280;56325;47.030;18.518;2023-02-01T13:06:12;100507.06;;;5.23;76.63
69214;BME280;56325;47.030;18.518;2023-02-01T13:08:52;100504.53;;;5.12;76.87
69214;BME280;56325;47.030;18.518;2023-02-01T13:11:30;100492.75;;;5.19;78.33
69214;BME280;56325;47.030;18.518;2023-02-01T13:14:11;100488.97;;;5.33;77.68
69214;BME280;56325;47.030;18.518;2023-02-01T13:16:52;100458.63;;;5.31;78.89
69214;BME280;56325;47.030;18.518;2023-02-01T13:19:31;100460.75;;;5.43;78.71
69214;BME280;56325;47.030;18.518;2023-02-01T13:22:13;100448.78;;;5.56;77.95
69214;BME280;56325;47.030;18.518;2023-02-01T13:24:52;100450.81;;;5.72;76.62
69214;BME280;56325;47.030;18.518;2023-02-01T13:27:29;100450.63;;;5.63;76.90
69214;BME280;56325;47.030;18.518;2023-02-01T13:30:15;100452.72;;;5.55;77.34
69214;BME280;56325;47.030;18.518;2023-02-01T13:33:36;100456.69;;;5.51;78.65
69214;BME280;56325;47.030;18.518;2023-02-01T13:36:52;100464.25;;;5.63;78.32
69214;BME280;56325;47.030;18.518;2023-02-01T13:39:43;100461.88;;;5.45;78.74
69214;BME280;56325;47.030;18.518;2023-02-01T13:42:21;100471.81;;;5.55;77.85
69214;BME280;56325;47.030;18.518;2023-02-01T13:44:59;100491.19;;;5.61;77.93
69214;BME280;56325;47.030;18.518;2023-02-01T13:47:41;100502.34;;;5.47;78.15
69214;BME280;56325;47.030;18.518;2023-02-01T13:50:22;100521.75;;;5.29;78.98
69214;BME280;56325;47.030;18.518;2023-02-01T13:52:59;100534.44;;;5.39;79.47
69214;BME280;56325;47.030;18.518;2023-02-01T13:55:36;100531.59;;;5.23;80.32
69214;BME280;56325;47.030;18.518;2023-02-01T13:58:17;100536.78;;;5.17;80.60
69214;BME280;56325;47.030;18.518;2023-02-01T14:04:47;100530.47;;;4.97;82.16
69214;BME280;56325;47.030;18.518;2023-02-01T14:07:22;100533.34;;;4.86;80.72
69214;BME280;56325;47.030;18.518;2023-02-01T14:09:57;100560.19;;;4.88;82.23
69214;BME280;56325;47.030;18.518;2023-02-01T14:12:48;100579.72;;;4.83;83.93
69214;BME280;56325;47.030;18.518;2023-02-01T14:15:25;100542.97;;;4.68;85.81
69214;BME280;56325;47.030;18.518;2023-02-01T14:18:00;100548.78;;;4.70;85.94